Time;durP1;ratioP1;P1;durP2;ratioP2;P2;SDS_P1;SDS_P2;PMS_P1;PMS_P2;Temp;Humidity;BMP_temperature;BMP_pressure;BME280_temperature;BME280_humidity;BME280_pressure;Samples;Min_cycle;Max_cycle;Signal;HPM_P1;HPM_P2
2023/05/15 00:01:42;;;;;;;11.43;5.20;;;12.60;99.90;;;;;;5100099;28;20643;-61
2023/05/15 00:04:08;;;;;;;10.82;6.38;;;12.60;99.90;;;;;;5103726;28;20654;-60
2023/05/15 00:06:34;;;;;;;15.75;6.22;;;12.50;99.90;;;;;;5104565;28;20020;-60
2023/05/15 00:09:00;;;;;;;9.70;5.18;;;12.30;99.90;;;;;;5100895;28;20558;-61
2023/05/15 00:11:26;;;;;;;17.98;5.82;;;12.30;99.90;;;;;;5100771;28;20060;-60
2023/05/15 00:13:52;;;;;;;12.80;5.70;;;12.30;99.90;;;;;;5099428;28;20039;-59
2023/05/15 00:16:18;;;;;;;8.60;5.95;;;12.30;99.90;;;;;;5103410;28;20023;-60
2023/05/15 00:18:44;;;;;;;11.82;6.28;;;12.30;99.90;;;;;;5104848;28;20023;-60
2023/05/15 00:21:09;;;;;;;11.98;7.45;;;12.20;99.90;;;;;;5104189;28;20106;-60
2023/05/15 00:23:35;;;;;;;10.52;7.10;;;12.20;99.90;;;;;;5112842;28;20115;-60
2023/05/15 00:26:00;;;;;;;10.20;6.47;;;12.20;99.90;;;;;;5107482;28;20493;-61
2023/05/15 00:28:26;;;;;;;13.60;7.35;;;12.20;99.90;;;;;;5112500;28;20024;-59
2023/05/15 00:30:52;;;;;;;14.25;7.43;;;12.10;99.90;;;;;;5105832;28;20034;-57
2023/05/15 00:33:17;;;;;;;13.05;7.85;;;12.10;99.90;;;;;;5112315;28;20568;-61
2023/05/15 00:35:43;;;;;;;23.70;12.15;;;12.10;99.90;;;;;;5108641;28;20028;-61
2023/05/15 00:38:08;;;;;;;23.13;12.82;;;12.20;99.90;;;;;;5106038;28;20039;-61
2023/05/15 00:40:36;;;;;;;23.73;13.48;;;12.40;99.90;;;;;;5110329;28;20032;-60
2023/05/15 00:43:03;;;;;;;30.00;15.35;;;12.50;99.90;;;;;;5105783;28;20051;-61
2023/05/15 00:45:29;;;;;;;27.42;15.73;;;12.80;99.90;;;;;;5105034;28;20677;-61
2023/05/15 00:47:57;;;;;;;34.85;16.95;;;13.00;99.90;;;;;;5112093;28;20028;-60
2023/05/15 00:50:23;;;;;;;34.42;17.48;;;13.20;99.90;;;;;;5107623;28;20024;-60
2023/05/15 00:52:49;;;;;;;38.35;17.73;;;13.30;99.90;;;;;;5102733;28;20035;-60
2023/05/15 00:55:15;;;;;;;40.45;18.77;;;13.40;99.90;;;;;;5108763;28;20035;-61
2023/05/15 00:57:42;;;;;;;36.78;17.75;;;13.50;99.90;;;;;;5111184;28;20030;-56
2023/05/15 01:00:09;;;;;;;40.72;17.35;;;13.50;99.90;;;;;;5108984;28;20381;-60
2023/05/15 01:02:37;;;;;;;38.13;17.05;;;13.50;99.90;;;;;;5107400;28;20016;-55
2023/05/15 01:05:04;;;;;;;36.53;17.65;;;13.50;99.90;;;;;;5104986;28;20606;-60
2023/05/15 01:07:33;;;;;;;28.88;15.80;;;13.50;99.90;;;;;;5108042;28;20093;-60
2023/05/15 01:10:00;;;;;;;38.63;17.45;;;13.60;99.90;;;;;;5103216;28;20036;-61
2023/05/15 01:12:30;;;;;;;31.92;15.70;;;13.50;99.90;;;;;;5102901;28;20027;-57
2023/05/15 01:14:56;;;;;;;36.72;16.38;;;13.50;99.90;;;;;;5101641;28;20512;-56
2023/05/15 01:17:21;;;;;;;31.83;16.73;;;13.50;99.90;;;;;;5106096;28;20039;-58
2023/05/15 01:19:49;;;;;;;37.13;15.65;;;13.50;99.90;;;;;;5102311;28;20045;-60
2023/05/15 01:22:43;;;;;;;38.10;18.30;;;13.50;99.90;;;;;;5104353;28;20035;-60
2023/05/15 01:25:32;;;;;;;37.60;18.73;;;13.50;99.90;;;;;;5105785;28;20106;-60
2023/05/15 01:28:08;;;;;;;45.47;19.17;;;13.50;99.90;;;;;;5102598;28;20039;-62
2023/05/15 01:30:37;;;;;;;38.65;20.15;;;13.40;99.90;;;;;;5107462;28;20012;-61
2023/05/15 01:33:25;;;;;;;39.65;19.48;;;13.40;99.90;;;;;;5101894;28;20049;-59
2023/05/15 01:36:22;;;;;;;34.05;20.50;;;13.40;99.90;;;;;;5103399;28;20080;-59
2023/05/15 01:38:51;;;;;;;39.35;19.98;;;13.40;99.90;;;;;;5099005;28;20040;-61
2023/05/15 01:41:21;;;;;;;47.05;21.50;;;13.40;99.90;;;;;;5104940;28;20028;-60
2023/05/15 01:43:51;;;;;;;40.35;21.60;;;13.40;99.90;;;;;;5103853;28;20088;-61
2023/05/15 01:46:20;;;;;;;47.42;22.52;;;13.40;99.90;;;;;;5102728;27;20027;-59
2023/05/15 01:48:48;;;;;;;52.67;21.50;;;13.50;99.90;;;;;;5104108;27;20070;-60
2023/05/15 01:51:15;;;;;;;54.53;23.88;;;13.50;99.90;;;;;;5102534;28;20019;-60
2023/05/15 01:53:42;;;;;;;59.97;25.70;;;13.50;99.90;;;;;;5106013;28;20086;-58
2023/05/15 01:56:11;;;;;;;53.78;24.90;;;13.60;99.90;;;;;;5104628;28;20055;-61
2023/05/15 01:58:37;;;;;;;61.55;24.60;;;13.60;99.90;;;;;;5104944;28;20101;-57
2023/05/15 02:01:04;;;;;;;67.43;26.40;;;13.70;99.90;;;;;;5104871;28;20455;-61
2023/05/15 02:03:34;;;;;;;62.58;26.77;;;13.70;99.90;;;;;;5102616;28;20103;-60
2023/05/15 02:06:02;;;;;;;70.50;27.33;;;13.70;99.90;;;;;;5105030;28;20092;-61
2023/05/15 02:08:29;;;;;;;69.40;28.23;;;13.70;99.90;;;;;;5107160;28;20024;-60
2023/05/15 02:11:00;;;;;;;73.10;28.05;;;13.80;99.90;;;;;;5106948;28;20038;-60
2023/05/15 02:13:26;;;;;;;70.25;27.42;;;13.80;99.90;;;;;;5106669;28;20055;-60
2023/05/15 02:15:52;;;;;;;71.45;29.73;;;13.80;99.90;;;;;;5102898;28;20051;-60
2023/05/15 02:18:17;;;;;;;87.68;33.40;;;13.80;99.90;;;;;;5108876;28;20541;-61
2023/05/15 02:20:43;;;;;;;90.07;33.20;;;13.80;99.90;;;;;;5106977;28;20106;-60
2023/05/15 02:23:09;;;;;;;93.53;32.83;;;13.80;99.90;;;;;;5103215;28;20106;-60
2023/05/15 02:26:12;;;;;;;88.82;32.75;;;13.80;99.90;;;;;;5102862;28;20019;-59
2023/05/15 02:28:53;;;;;;;104.03;36.70;;;13.90;99.90;;;;;;5106574;28;20019;-61
2023/05/15 02:31:42;;;;;;;92.63;33.38;;;13.90;99.90;;;;;;5102944;28;20453;-60
2023/05/15 02:34:29;;;;;;;87.15;33.33;;;13.90;99.90;;;;;;5102539;28;20036;-61
2023/05/15 02:36:59;;;;;;;88.15;34.25;;;13.90;99.90;;;;;;5102610;28;20031;-60
2023/05/15 02:39:26;;;;;;;82.05;34.10;;;13.90;99.90;;;;;;5103430;28;20060;-61
2023/05/15 02:41:52;;;;;;;91.65;36.33;;;13.90;99.90;;;;;;5099922;28;20027;-60
2023/05/15 02:44:19;;;;;;;98.43;37.22;;;13.90;99.90;;;;;;5099380;28;20536;-59
2023/05/15 02:46:46;;;;;;;93.18;36.20;;;14.00;99.90;;;;;;5101081;28;20016;-61
2023/05/15 02:49:13;;;;;;;94.85;38.58;;;13.90;99.90;;;;;;5106268;28;20027;-60
2023/05/15 02:51:39;;;;;;;99.47;37.75;;;13.90;99.90;;;;;;5101823;28;20027;-60
2023/05/15 02:54:05;;;;;;;95.82;39.58;;;13.90;99.90;;;;;;5106723;28;20034;-61
2023/05/15 02:56:30;;;;;;;101.63;40.33;;;13.90;99.90;;;;;;5100991;28;20115;-61
2023/05/15 02:58:56;;;;;;;98.75;39.67;;;13.90;99.90;;;;;;5099605;28;21223;-61
2023/05/15 03:01:22;;;;;;;98.32;38.08;;;13.90;99.90;;;;;;5100573;28;20051;-61
2023/05/15 03:03:47;;;;;;;92.93;38.53;;;13.90;99.90;;;;;;5102207;28;20043;-60
2023/05/15 03:06:13;;;;;;;89.60;37.42;;;13.90;99.90;;;;;;5102442;28;20012;-61
2023/05/15 03:08:39;;;;;;;89.45;40.33;;;13.90;99.90;;;;;;5103383;28;20030;-61
2023/05/15 03:11:04;;;;;;;91.57;39.00;;;13.90;99.90;;;;;;5101164;28;20023;-61
2023/05/15 03:13:30;;;;;;;93.07;39.10;;;13.90;99.90;;;;;;5104978;27;20035;-61
2023/05/15 03:15:56;;;;;;;98.90;39.05;;;13.90;99.90;;;;;;5099323;28;20396;-60
2023/05/15 03:18:21;;;;;;;99.70;39.55;;;13.80;99.90;;;;;;5099766;28;20049;-59
2023/05/15 03:20:48;;;;;;;101.10;40.35;;;13.90;99.90;;;;;;5105406;28;20034;-62
2023/05/15 03:23:14;;;;;;;96.47;37.97;;;13.80;99.90;;;;;;5107638;28;20401;-61
2023/05/15 03:25:39;;;;;;;87.97;38.47;;;13.80;99.90;;;;;;5105657;28;20486;-60
2023/05/15 03:28:05;;;;;;;100.07;38.80;;;13.80;99.90;;;;;;5100288;28;20035;-60
2023/05/15 03:30:30;;;;;;;96.60;38.00;;;13.80;99.90;;;;;;5097725;28;20039;-61
2023/05/15 03:32:56;;;;;;;96.18;38.35;;;13.80;99.90;;;;;;5099727;28;20023;-60
2023/05/15 03:35:22;;;;;;;94.18;37.13;;;13.80;99.90;;;;;;5104007;28;20031;-61
2023/05/15 03:37:48;;;;;;;98.03;37.75;;;13.80;99.90;;;;;;5106382;28;20032;-61
2023/05/15 03:40:13;;;;;;;92.20;38.97;;;13.80;99.90;;;;;;5099121;28;20027;-61
2023/05/15 03:42:39;;;;;;;87.82;35.38;;;13.80;99.90;;;;;;5101877;28;20124;-61
2023/05/15 03:45:05;;;;;;;98.30;38.55;;;13.80;99.90;;;;;;5103834;28;20077;-59
2023/05/15 03:47:30;;;;;;;86.75;37.55;;;13.80;99.90;;;;;;5102867;28;20529;-61
2023/05/15 03:49:56;;;;;;;84.80;35.50;;;13.80;99.90;;;;;;5100018;28;20055;-61
2023/05/15 03:52:21;;;;;;;88.40;35.90;;;13.70;99.90;;;;;;5100209;28;20059;-59
2023/05/15 03:54:47;;;;;;;95.80;40.83;;;13.70;99.90;;;;;;5100083;28;20058;-53
2023/05/15 03:57:12;;;;;;;90.88;36.90;;;13.70;99.90;;;;;;5101757;28;20067;-61
2023/05/15 03:59:38;;;;;;;85.72;36.47;;;13.70;99.90;;;;;;5100411;28;20081;-60
2023/05/15 04:02:04;;;;;;;85.95;35.72;;;13.60;99.90;;;;;;5099202;28;20031;-61
2023/05/15 04:04:29;;;;;;;87.85;35.60;;;13.60;99.90;;;;;;5103113;28;20115;-59
2023/05/15 04:06:55;;;;;;;88.72;35.22;;;13.60;99.90;;;;;;5100293;28;20047;-60
2023/05/15 04:09:20;;;;;;;83.85;34.28;;;13.60;99.90;;;;;;5101262;28;20576;-60
2023/05/15 04:11:46;;;;;;;95.50;36.85;;;13.60;99.90;;;;;;5099924;28;22133;-60
2023/05/15 04:14:12;;;;;;;89.72;36.22;;;13.60;99.90;;;;;;5106329;28;20024;-60
2023/05/15 04:16:37;;;;;;;80.32;34.85;;;13.60;99.90;;;;;;5099464;28;20024;-60
2023/05/15 04:19:03;;;;;;;84.90;34.88;;;13.70;99.90;;;;;;5101459;28;20054;-61
2023/05/15 04:21:29;;;;;;;82.90;33.58;;;13.70;99.90;;;;;;5097549;28;20515;-58
2023/05/15 04:23:54;;;;;;;83.78;37.13;;;13.60;99.90;;;;;;5099279;28;20021;-60
2023/05/15 04:26:20;;;;;;;87.18;37.80;;;13.60;99.90;;;;;;5099151;28;20012;-60
2023/05/15 04:28:45;;;;;;;82.57;33.40;;;13.60;99.90;;;;;;5102393;28;20579;-59
2023/05/15 04:31:11;;;;;;;80.60;33.58;;;13.60;99.90;;;;;;5098117;28;20032;-61
2023/05/15 04:33:38;;;;;;;78.88;33.90;;;13.60;99.90;;;;;;5100691;28;20023;-59
2023/05/15 04:36:05;;;;;;;77.68;33.42;;;13.50;99.90;;;;;;5102595;28;20425;-60
2023/05/15 04:38:31;;;;;;;70.95;30.67;;;13.50;99.90;;;;;;5101524;28;20071;-60
2023/05/15 04:40:56;;;;;;;76.30;34.72;;;13.50;99.90;;;;;;5104881;28;20513;-60
2023/05/15 04:43:22;;;;;;;79.88;32.78;;;13.50;99.90;;;;;;5102248;28;20032;-58
2023/05/15 04:45:48;;;;;;;79.35;30.77;;;13.50;99.90;;;;;;5103636;28;20024;-61
2023/05/15 04:48:13;;;;;;;90.20;36.80;;;13.50;99.90;;;;;;5099182;28;20028;-60
2023/05/15 04:50:38;;;;;;;102.47;39.63;;;13.40;99.90;;;;;;5103252;28;20032;-57
2023/05/15 04:53:04;;;;;;;97.00;38.13;;;13.40;99.90;;;;;;5103494;28;20036;-57
2023/05/15 04:55:30;;;;;;;82.90;34.33;;;13.40;99.90;;;;;;5104438;28;20044;-58
2023/05/15 04:57:56;;;;;;;85.95;34.45;;;13.40;99.90;;;;;;5104099;28;20020;-57
2023/05/15 05:00:22;;;;;;;77.75;33.55;;;13.40;99.90;;;;;;5104842;28;20038;-56
2023/05/15 05:02:47;;;;;;;85.85;35.70;;;13.40;99.90;;;;;;5104563;28;20077;-60
2023/05/15 05:05:14;;;;;;;81.95;35.13;;;13.40;99.90;;;;;;5106993;28;20902;-56
2023/05/15 05:07:41;;;;;;;92.03;39.08;;;13.40;99.90;;;;;;5108237;28;20070;-55
2023/05/15 05:10:07;;;;;;;96.00;40.15;;;13.40;99.90;;;;;;5105270;28;20031;-59
2023/05/15 05:12:32;;;;;;;95.85;38.45;;;13.40;99.90;;;;;;5104574;28;20035;-61
2023/05/15 05:14:58;;;;;;;108.35;40.85;;;13.40;99.90;;;;;;5105527;28;20032;-54
2023/05/15 05:17:23;;;;;;;102.55;42.50;;;13.40;99.90;;;;;;5105039;28;20035;-54
2023/05/15 05:19:49;;;;;;;95.20;40.45;;;13.30;99.90;;;;;;5110953;28;20038;-57
2023/05/15 05:22:14;;;;;;;93.72;41.42;;;13.40;99.90;;;;;;5110866;28;20065;-59
2023/05/15 05:24:40;;;;;;;102.88;39.42;;;13.50;99.90;;;;;;5112750;28;20028;-59
2023/05/15 05:27:06;;;;;;;100.43;41.88;;;13.50;99.90;;;;;;5107865;28;20027;-58
2023/05/15 05:29:32;;;;;;;105.18;43.60;;;13.50;99.90;;;;;;5104636;28;20115;-60
2023/05/15 05:31:57;;;;;;;106.55;44.33;;;13.40;99.90;;;;;;5102193;28;20027;-59
2023/05/15 05:34:23;;;;;;;94.85;37.13;;;13.40;99.90;;;;;;5111753;28;20034;-57
2023/05/15 05:36:49;;;;;;;88.85;37.17;;;13.30;99.90;;;;;;5106962;28;20038;-56
2023/05/15 05:39:15;;;;;;;89.25;38.13;;;13.30;99.90;;;;;;5107664;27;20063;-59
2023/05/15 05:41:41;;;;;;;85.68;35.47;;;13.40;99.90;;;;;;5108774;28;20027;-59
2023/05/15 05:44:07;;;;;;;81.25;34.92;;;13.40;99.90;;;;;;5107527;28;20038;-55
2023/05/15 05:46:33;;;;;;;86.00;35.15;;;13.40;99.90;;;;;;5107735;28;20070;-57
2023/05/15 05:48:58;;;;;;;84.28;36.80;;;13.40;99.90;;;;;;5109558;28;20024;-59
2023/05/15 05:51:24;;;;;;;84.90;37.58;;;13.50;99.90;;;;;;5111418;28;20023;-54
2023/05/15 05:53:49;;;;;;;78.90;36.15;;;13.40;99.90;;;;;;5110919;28;20447;-54
2023/05/15 05:56:15;;;;;;;82.18;38.13;;;13.40;99.90;;;;;;5103313;28;20028;-61
2023/05/15 05:58:41;;;;;;;88.72;38.17;;;13.40;99.90;;;;;;5109066;28;20038;-60
2023/05/15 06:01:07;;;;;;;79.40;34.17;;;13.40;99.90;;;;;;5111400;28;20035;-58
2023/05/15 06:03:33;;;;;;;84.55;38.28;;;13.40;99.90;;;;;;5113128;28;20026;-58
2023/05/15 06:05:59;;;;;;;81.63;38.13;;;13.40;99.90;;;;;;5113048;28;20028;-59
2023/05/15 06:08:25;;;;;;;88.82;38.38;;;13.40;99.90;;;;;;5111184;28;20508;-56
2023/05/15 06:10:50;;;;;;;89.97;39.63;;;13.40;99.90;;;;;;5112044;28;20019;-58
2023/05/15 06:13:16;;;;;;;82.90;35.63;;;13.40;99.90;;;;;;5113064;28;20024;-60
2023/05/15 06:15:43;;;;;;;83.32;36.70;;;13.40;99.90;;;;;;5110998;28;20028;-58
2023/05/15 06:18:09;;;;;;;82.53;38.20;;;13.40;99.90;;;;;;5111909;28;20039;-60
2023/05/15 06:20:34;;;;;;;83.88;38.45;;;13.30;99.90;;;;;;5111926;28;20067;-61
2023/05/15 06:23:00;;;;;;;97.32;43.47;;;13.20;99.90;;;;;;5112976;28;20034;-62
2023/05/15 06:25:25;;;;;;;100.50;43.90;;;13.10;99.90;;;;;;5111949;28;20031;-61
2023/05/15 06:27:51;;;;;;;101.72;42.75;;;13.10;99.90;;;;;;5113190;28;20020;-61
2023/05/15 06:30:17;;;;;;;113.47;47.20;;;13.10;99.90;;;;;;5110035;28;20653;-59
2023/05/15 06:32:42;;;;;;;108.72;47.65;;;13.10;99.90;;;;;;5112874;28;20114;-61
2023/05/15 06:35:09;;;;;;;109.72;46.80;;;13.10;99.90;;;;;;5112438;28;20027;-60
2023/05/15 06:37:35;;;;;;;103.13;43.80;;;13.10;99.90;;;;;;5112936;28;20026;-60
2023/05/15 06:40:01;;;;;;;110.00;45.95;;;13.10;99.90;;;;;;5112402;28;20023;-57
2023/05/15 06:42:27;;;;;;;104.68;42.38;;;13.10;99.90;;;;;;5112808;28;20038;-61
2023/05/15 06:44:52;;;;;;;92.90;40.55;;;13.10;99.90;;;;;;5112166;28;20023;-58
2023/05/15 06:47:18;;;;;;;88.32;36.75;;;13.00;99.90;;;;;;5111105;28;20477;-61
2023/05/15 06:49:44;;;;;;;80.32;36.47;;;13.10;99.90;;;;;;5111126;28;20366;-58
2023/05/15 06:52:09;;;;;;;97.20;39.55;;;13.10;99.90;;;;;;5112459;28;20059;-60
2023/05/15 06:54:35;;;;;;;97.72;43.10;;;13.10;99.90;;;;;;5112521;28;20034;-60
2023/05/15 06:57:01;;;;;;;96.90;41.67;;;13.00;99.90;;;;;;5106329;28;20389;-62
2023/05/15 06:59:26;;;;;;;110.13;43.85;;;13.00;99.90;;;;;;5110647;28;20043;-59
2023/05/15 07:01:52;;;;;;;103.78;41.85;;;13.00;99.90;;;;;;5108622;28;20031;-62
2023/05/15 07:04:17;;;;;;;97.95;41.53;;;13.10;99.90;;;;;;5107896;28;20030;-59
2023/05/15 07:06:43;;;;;;;89.35;39.55;;;13.10;99.90;;;;;;5104365;28;20432;-61
2023/05/15 07:09:08;;;;;;;91.35;39.58;;;13.20;99.90;;;;;;5101037;28;20030;-60
2023/05/15 07:11:36;;;;;;;102.32;41.97;;;13.30;99.90;;;;;;5106804;28;20374;-61
2023/05/15 07:14:02;;;;;;;91.85;38.85;;;13.30;99.90;;;;;;5108427;28;20024;-61
2023/05/15 07:16:28;;;;;;;95.22;41.42;;;13.30;99.90;;;;;;5110230;28;20485;-61
2023/05/15 07:18:54;;;;;;;90.45;39.25;;;13.40;99.90;;;;;;5110725;28;20024;-61
2023/05/15 07:21:19;;;;;;;93.25;41.28;;;13.40;99.90;;;;;;5111029;28;20038;-60
2023/05/15 07:23:45;;;;;;;94.78;40.65;;;13.30;99.90;;;;;;5107897;28;20031;-61
2023/05/15 07:26:13;;;;;;;88.88;39.47;;;13.20;99.90;;;;;;5106152;28;20023;-62
2023/05/15 07:28:39;;;;;;;92.47;37.75;;;13.20;99.90;;;;;;5111868;28;20015;-61
2023/05/15 07:31:04;;;;;;;92.80;39.38;;;13.20;99.90;;;;;;5108060;28;20036;-60
2023/05/15 07:33:30;;;;;;;99.18;41.90;;;13.30;99.90;;;;;;5110708;28;20038;-59
2023/05/15 07:35:55;;;;;;;91.93;40.80;;;13.30;99.90;;;;;;5103046;28;20035;-57
2023/05/15 07:38:21;;;;;;;98.60;42.53;;;13.30;99.90;;;;;;5109345;28;20032;-58
2023/05/15 07:40:46;;;;;;;92.57;41.78;;;13.30;99.90;;;;;;5107747;28;20030;-58
2023/05/15 07:43:12;;;;;;;87.57;39.42;;;13.20;99.90;;;;;;5106130;28;20019;-57
2023/05/15 07:45:37;;;;;;;86.88;37.58;;;13.20;99.90;;;;;;5105407;28;20103;-57
2023/05/15 07:48:13;;;;;;;94.20;42.13;;;13.20;99.90;;;;;;5105577;28;20024;-60
2023/05/15 07:50:39;;;;;;;87.78;39.78;;;13.20;99.90;;;;;;5106384;28;20019;-58
2023/05/15 07:53:05;;;;;;;86.78;39.92;;;13.10;99.90;;;;;;5107088;28;20638;-58
2023/05/15 07:55:30;;;;;;;88.88;40.85;;;13.20;99.90;;;;;;5105277;28;20028;-59
2023/05/15 07:57:56;;;;;;;89.28;38.60;;;13.20;99.90;;;;;;5098569;28;20035;-61
2023/05/15 08:00:22;;;;;;;95.57;42.42;;;13.20;99.90;;;;;;5104418;28;20126;-59
2023/05/15 08:02:47;;;;;;;93.95;41.60;;;13.20;99.90;;;;;;5107742;28;20552;-57
2023/05/15 08:05:13;;;;;;;85.35;38.75;;;13.10;99.90;;;;;;5107119;28;20035;-56
2023/05/15 08:07:39;;;;;;;84.15;40.15;;;13.20;99.90;;;;;;5104818;28;20023;-59
2023/05/15 08:10:05;;;;;;;90.90;41.38;;;13.10;99.90;;;;;;5108136;28;20011;-59
2023/05/15 08:12:31;;;;;;;91.75;40.30;;;13.20;99.90;;;;;;5105882;28;20450;-58
2023/05/15 08:14:56;;;;;;;90.90;40.78;;;13.30;99.90;;;;;;5107619;28;20099;-59
2023/05/15 08:17:23;;;;;;;95.75;40.83;;;13.30;99.90;;;;;;5105872;28;20031;-57
2023/05/15 08:19:49;;;;;;;95.18;41.00;;;13.30;99.90;;;;;;5108077;28;20034;-59
2023/05/15 08:22:15;;;;;;;95.65;42.13;;;13.30;99.90;;;;;;5104350;28;20023;-60
2023/05/15 08:24:40;;;;;;;93.43;42.90;;;13.30;99.90;;;;;;5105626;28;20442;-61
2023/05/15 08:27:07;;;;;;;95.80;43.22;;;13.20;99.90;;;;;;5106272;28;20020;-60
2023/05/15 08:29:34;;;;;;;108.55;44.33;;;13.30;99.90;;;;;;5110072;28;20103;-58
2023/05/15 08:32:00;;;;;;;97.15;44.35;;;13.30;99.90;;;;;;5107909;28;20028;-60
2023/05/15 08:34:26;;;;;;;91.32;42.55;;;13.40;99.90;;;;;;5107221;28;20072;-59
2023/05/15 08:36:52;;;;;;;98.65;44.53;;;13.50;99.90;;;;;;5107103;28;20118;-56
2023/05/15 08:39:18;;;;;;;92.40;44.55;;;13.30;99.90;;;;;;5106997;28;20106;-57
2023/05/15 08:41:56;;;;;;;101.10;44.45;;;13.40;99.90;;;;;;5107226;28;20035;-59
2023/05/15 08:44:23;;;;;;;92.20;44.47;;;13.50;99.90;;;;;;5114625;28;20414;-57
2023/05/15 08:46:51;;;;;;;95.72;44.80;;;13.50;99.90;;;;;;5115079;28;20023;-57
2023/05/15 08:49:42;;;;;;;101.47;45.38;;;13.60;99.90;;;;;;5113819;28;20020;-59
2023/05/15 08:52:08;;;;;;;97.32;42.85;;;13.50;99.90;;;;;;5113364;28;20030;-54
2023/05/15 08:54:34;;;;;;;91.18;44.35;;;13.50;99.90;;;;;;5114578;28;20024;-56
2023/05/15 08:57:01;;;;;;;100.10;43.38;;;13.70;99.90;;;;;;5114892;28;20028;-54
2023/05/15 08:59:26;;;;;;;91.88;43.15;;;13.90;99.90;;;;;;5114436;28;20027;-57
2023/05/15 09:01:53;;;;;;;84.55;40.53;;;14.00;99.90;;;;;;5114347;28;20121;-60
2023/05/15 09:04:19;;;;;;;85.22;39.38;;;14.20;99.90;;;;;;5114809;28;20015;-58
2023/05/15 09:06:46;;;;;;;84.05;38.42;;;14.20;99.90;;;;;;5112009;28;20019;-58
2023/05/15 09:09:12;;;;;;;72.03;34.88;;;14.40;99.90;;;;;;5113907;28;20385;-60
2023/05/15 09:11:43;;;;;;;71.75;33.40;;;14.70;99.90;;;;;;5114311;28;20020;-58
2023/05/15 09:14:08;;;;;;;68.35;34.30;;;14.80;99.90;;;;;;5114325;28;20027;-59
2023/05/15 09:16:34;;;;;;;66.68;32.25;;;14.90;99.90;;;;;;5113951;28;20016;-59
2023/05/15 09:19:01;;;;;;;63.13;31.23;;;15.10;99.90;;;;;;5112895;28;20023;-59
2023/05/15 09:21:29;;;;;;;64.70;31.63;;;15.20;99.90;;;;;;5111243;28;20537;-59
2023/05/15 09:24:16;;;;;;;69.78;32.90;;;15.50;99.90;;;;;;5113674;28;20034;-59
2023/05/15 09:26:46;;;;;;;57.17;29.23;;;15.60;99.90;;;;;;5113183;28;20030;-59
2023/05/15 09:29:16;;;;;;;60.05;31.75;;;15.70;99.90;;;;;;5114034;28;20027;-58
2023/05/15 09:31:41;;;;;;;68.78;33.08;;;15.60;99.90;;;;;;5114004;28;20043;-58
2023/05/15 09:34:09;;;;;;;55.72;28.75;;;15.40;99.90;;;;;;5114127;28;20505;-60
2023/05/15 09:36:34;;;;;;;58.30;28.17;;;15.50;99.90;;;;;;5112870;28;20039;-58
2023/05/15 09:39:00;;;;;;;59.03;29.85;;;15.70;99.90;;;;;;5111445;28;20108;-60
2023/05/15 09:41:27;;;;;;;62.70;31.13;;;15.80;99.90;;;;;;5113344;28;20024;-60
2023/05/15 09:43:55;;;;;;;52.83;28.60;;;15.80;99.90;;;;;;5114001;28;20069;-61
2023/05/15 09:46:21;;;;;;;55.83;28.45;;;16.00;99.90;;;;;;5113794;28;20031;-61
2023/05/15 09:48:47;;;;;;;54.00;27.92;;;16.20;99.90;;;;;;5113721;28;20015;-57
2023/05/15 09:51:17;;;;;;;55.17;26.27;;;16.20;99.90;;;;;;5113543;28;20073;-56
2023/05/15 09:53:51;;;;;;;48.40;26.90;;;16.30;99.90;;;;;;5111019;28;20102;-61
2023/05/15 09:56:17;;;;;;;51.17;25.92;;;16.50;99.90;;;;;;5113809;28;20068;-58
2023/05/15 09:58:56;;;;;;;52.35;25.73;;;16.60;99.90;;;;;;5113751;28;20023;-60
2023/05/15 10:01:22;;;;;;;46.92;25.42;;;16.70;99.90;;;;;;5113147;28;20031;-62
2023/05/15 10:04:02;;;;;;;48.15;24.75;;;16.60;99.90;;;;;;5113598;28;20388;-62
2023/05/15 10:06:36;;;;;;;48.95;25.30;;;16.60;99.90;;;;;;5113272;28;20027;-61
2023/05/15 10:09:03;;;;;;;46.55;23.60;;;16.50;99.90;;;;;;5107509;28;20019;-62
2023/05/15 10:11:36;;;;;;;44.97;23.15;;;16.30;99.90;;;;;;5112627;28;20420;-59
2023/05/15 10:14:04;;;;;;;41.10;21.30;;;16.10;99.90;;;;;;5109196;28;20015;-61
2023/05/15 10:16:32;;;;;;;38.38;22.75;;;16.30;99.90;;;;;;5113378;28;20028;-61
2023/05/15 10:19:01;;;;;;;54.30;23.67;;;16.60;99.90;;;;;;5113154;28;20051;-61
2023/05/15 10:21:29;;;;;;;42.35;21.80;;;16.80;99.90;;;;;;5112816;28;20070;-60
2023/05/15 10:23:58;;;;;;;38.78;19.75;;;17.10;99.90;;;;;;5113350;28;20012;-60
2023/05/15 10:26:36;;;;;;;42.92;20.45;;;17.50;99.90;;;;;;5111903;28;20398;-62
2023/05/15 10:29:04;;;;;;;31.52;18.42;;;17.60;99.90;;;;;;5112785;28;20051;-62
2023/05/15 10:31:30;;;;;;;45.33;20.02;;;17.70;99.90;;;;;;5112748;28;20385;-61
2023/05/15 10:33:56;;;;;;;36.42;18.50;;;17.90;99.90;;;;;;5113019;28;20094;-61
2023/05/15 10:36:23;;;;;;;33.85;17.77;;;18.00;99.90;;;;;;5113282;28;20381;-60
2023/05/15 10:38:49;;;;;;;36.97;19.27;;;18.30;99.90;;;;;;5112664;28;20032;-60
2023/05/15 10:41:20;;;;;;;34.17;18.75;;;18.40;99.90;;;;;;5111731;28;20032;-63
2023/05/15 10:43:47;;;;;;;37.85;20.77;;;18.60;99.90;;;;;;5112591;28;20019;-61
2023/05/15 10:46:15;;;;;;;35.83;19.85;;;18.70;99.90;;;;;;5112746;28;20023;-60
2023/05/15 10:48:40;;;;;;;37.50;19.27;;;18.70;99.90;;;;;;5112649;28;20042;-59
2023/05/15 10:51:26;;;;;;;28.45;16.80;;;18.90;99.90;;;;;;5112512;28;20630;-59
2023/05/15 10:53:52;;;;;;;30.55;15.18;;;19.10;99.90;;;;;;5108588;28;20493;-60
2023/05/15 10:56:17;;;;;;;24.38;12.48;;;19.10;99.90;;;;;;5111046;28;20015;-59
2023/05/15 10:58:53;;;;;;;26.10;14.30;;;19.00;99.90;;;;;;5109735;28;20016;-61
2023/05/15 11:01:26;;;;;;;22.20;12.68;;;19.20;99.90;;;;;;5112101;28;20205;-61
2023/05/15 11:04:13;;;;;;;21.70;11.50;;;19.30;99.90;;;;;;5108760;28;20016;-62
2023/05/15 11:06:42;;;;;;;29.52;14.88;;;19.30;99.90;;;;;;5110985;28;20015;-60
2023/05/15 11:09:20;;;;;;;30.10;14.60;;;19.20;99.90;;;;;;5112407;28;20107;-61
2023/05/15 11:11:52;;;;;;;24.10;13.98;;;19.10;99.90;;;;;;5111697;28;20026;-59
2023/05/15 11:14:18;;;;;;;28.50;14.88;;;19.20;99.90;;;;;;5107762;28;20026;-60
2023/05/15 11:16:53;;;;;;;31.70;16.42;;;19.50;99.90;;;;;;5112270;28;20032;-62
2023/05/15 11:19:36;;;;;;;28.10;15.00;;;19.50;99.90;;;;;;5110315;28;20383;-59
2023/05/15 11:22:07;;;;;;;27.90;16.20;;;19.70;99.90;;;;;;5112054;28;20471;-60
2023/05/15 11:24:57;;;;;;;26.70;15.02;;;19.90;99.90;;;;;;5112120;28;20047;-62
2023/05/15 11:27:31;;;;;;;23.73;13.70;;;20.20;99.90;;;;;;5111778;28;20024;-61
2023/05/15 11:30:21;;;;;;;35.78;17.48;;;20.40;99.90;;;;;;5104679;28;20024;-62
2023/05/15 11:32:46;;;;;;;32.80;17.75;;;20.20;99.90;;;;;;5111596;28;20035;-61
2023/05/15 11:35:17;;;;;;;31.55;17.45;;;20.00;99.90;;;;;;5112003;28;20028;-61
2023/05/15 11:37:50;;;;;;;29.48;14.63;;;20.00;99.90;;;;;;5110907;28;20497;-60
2023/05/15 11:40:30;;;;;;;35.47;16.45;;;20.10;99.90;;;;;;5111459;28;20023;-61
2023/05/15 11:43:19;;;;;;;30.05;15.23;;;20.00;99.90;;;;;;5110548;28;20038;-60
2023/05/15 11:45:54;;;;;;;28.02;14.90;;;20.10;99.90;;;;;;5109979;28;20023;-59
2023/05/15 11:48:23;;;;;;;25.00;15.57;;;20.20;99.90;;;;;;5111228;28;20062;-61
2023/05/15 11:50:49;;;;;;;26.35;15.00;;;20.20;99.90;;;;;;5111143;28;20436;-61
2023/05/15 11:53:15;;;;;;;20.23;12.63;;;20.20;99.90;;;;;;5110903;28;20026;-60
2023/05/15 11:55:43;;;;;;;22.05;11.90;;;20.40;99.90;;;;;;5110800;28;20023;-61
2023/05/15 11:58:13;;;;;;;24.27;12.90;;;20.80;99.90;;;;;;5111531;28;20030;-61
2023/05/15 12:00:40;;;;;;;24.48;13.00;;;20.90;99.90;;;;;;5109853;28;20020;-61
2023/05/15 12:03:05;;;;;;;20.13;11.93;;;20.90;99.90;;;;;;5108842;28;20478;-59
2023/05/15 12:05:31;;;;;;;17.15;12.32;;;20.80;99.90;;;;;;5111156;28;20026;-60
2023/05/15 12:07:57;;;;;;;18.05;11.85;;;21.00;99.90;;;;;;5111363;28;20019;-61
2023/05/15 12:10:22;;;;;;;19.63;11.27;;;21.00;99.90;;;;;;5111031;28;20454;-60
2023/05/15 12:12:48;;;;;;;18.98;10.30;;;20.80;99.80;;;;;;5111189;28;20077;-60
2023/05/15 12:15:18;;;;;;;21.63;9.95;;;20.90;98.10;;;;;;5111172;28;20027;-62
2023/05/15 12:17:45;;;;;;;23.45;12.65;;;21.00;97.70;;;;;;5109630;28;20069;-61
2023/05/15 12:20:14;;;;;;;20.40;12.30;;;21.00;96.50;;;;;;5110972;28;20524;-60
2023/05/15 12:22:41;;;;;;;22.55;11.77;;;20.90;98.10;;;;;;5111105;28;20035;-61
2023/05/15 12:25:08;;;;;;;23.75;12.68;;;21.10;99.90;;;;;;5109508;28;20069;-62
2023/05/15 12:27:35;;;;;;;26.98;12.90;;;21.40;97.60;;;;;;5110239;28;20016;-61
2023/05/15 12:30:02;;;;;;;18.55;11.77;;;21.50;98.00;;;;;;5108895;28;20433;-62